sensor_id;sensor_type;location;lat;lon;timestamp;P1;durP1;ratioP1;P2;durP2;ratioP2
50319;SDS011;36226;53.464;9.852;2023-06-26T00:00:31;7.78;;;6.95;;
50319;SDS011;36226;53.464;9.852;2023-06-26T00:02:57;8.35;;;7.15;;
50319;SDS011;36226;53.464;9.852;2023-06-26T00:05:23;8.60;;;7.50;;
50319;SDS011;36226;53.464;9.852;2023-06-26T00:07:48;7.25;;;6.55;;
50319;SDS011;36226;53.464;9.852;2023-06-26T00:10:13;8.27;;;7.47;;
50319;SDS011;36226;53.464;9.852;2023-06-26T00:12:39;7.63;;;6.93;;
50319;SDS011;36226;53.464;9.852;2023-06-26T00:15:04;7.65;;;6.95;;
50319;SDS011;36226;53.464;9.852;2023-06-26T00:17:30;7.88;;;7.10;;
50319;SDS011;36226;53.464;9.852;2023-06-26T00:19:55;7.72;;;6.90;;
50319;SDS011;36226;53.464;9.852;2023-06-26T00:22:21;7.60;;;6.90;;
50319;SDS011;36226;53.464;9.852;2023-06-26T00:24:46;7.95;;;6.53;;
50319;SDS011;36226;53.464;9.852;2023-06-26T00:27:12;7.50;;;6.70;;
50319;SDS011;36226;53.464;9.852;2023-06-26T00:29:37;7.30;;;6.50;;
50319;SDS011;36226;53.464;9.852;2023-06-26T00:32:03;7.55;;;6.72;;
50319;SDS011;36226;53.464;9.852;2023-06-26T00:34:29;8.70;;;7.00;;
50319;SDS011;36226;53.464;9.852;2023-06-26T00:36:54;7.38;;;6.68;;
50319;SDS011;36226;53.464;9.852;2023-06-26T00:39:20;7.22;;;6.53;;
50319;SDS011;36226;53.464;9.852;2023-06-26T00:41:45;6.68;;;5.85;;
50319;SDS011;36226;53.464;9.852;2023-06-26T00:44:10;6.68;;;5.85;;
50319;SDS011;36226;53.464;9.852;2023-06-26T00:46:36;7.18;;;5.97;;
50319;SDS011;36226;53.464;9.852;2023-06-26T00:49:02;6.70;;;6.00;;
50319;SDS011;36226;53.464;9.852;2023-06-26T00:51:28;8.20;;;5.50;;
50319;SDS011;36226;53.464;9.852;2023-06-26T00:53:54;6.68;;;5.93;;
50319;SDS011;36226;53.464;9.852;2023-06-26T00:56:20;6.30;;;5.60;;
50319;SDS011;36226;53.464;9.852;2023-06-26T00:58:45;6.47;;;5.78;;
50319;SDS011;36226;53.464;9.852;2023-06-26T01:01:11;7.13;;;6.07;;
50319;SDS011;36226;53.464;9.852;2023-06-26T01:03:41;7.13;;;6.20;;
50319;SDS011;36226;53.464;9.852;2023-06-26T01:06:06;7.07;;;6.00;;
50319;SDS011;36226;53.464;9.852;2023-06-26T01:08:36;6.88;;;6.18;;
50319;SDS011;36226;53.464;9.852;2023-06-26T01:11:02;6.53;;;5.75;;
50319;SDS011;36226;53.464;9.852;2023-06-26T01:13:28;6.32;;;5.72;;
50319;SDS011;36226;53.464;9.852;2023-06-26T01:15:54;7.20;;;6.03;;
50319;SDS011;36226;53.464;9.852;2023-06-26T01:18:19;7.18;;;5.28;;
50319;SDS011;36226;53.464;9.852;2023-06-26T01:20:45;8.27;;;5.88;;
50319;SDS011;36226;53.464;9.852;2023-06-26T01:26:16;6.43;;;5.63;;
50319;SDS011;36226;53.464;9.852;2023-06-26T01:28:43;6.18;;;5.45;;
50319;SDS011;36226;53.464;9.852;2023-06-26T01:31:09;7.43;;;5.97;;
50319;SDS011;36226;53.464;9.852;2023-06-26T01:33:36;7.82;;;5.60;;
50319;SDS011;36226;53.464;9.852;2023-06-26T01:36:01;7.38;;;5.88;;
50319;SDS011;36226;53.464;9.852;2023-06-26T01:38:27;6.65;;;5.43;;
50319;SDS011;36226;53.464;9.852;2023-06-26T01:40:52;6.15;;;5.55;;
50319;SDS011;36226;53.464;9.852;2023-06-26T01:43:27;6.40;;;5.70;;
50319;SDS011;36226;53.464;9.852;2023-06-26T01:45:55;7.30;;;5.35;;
50319;SDS011;36226;53.464;9.852;2023-06-26T01:48:25;7.88;;;6.68;;
50319;SDS011;36226;53.464;9.852;2023-06-26T01:50:54;7.63;;;5.75;;
50319;SDS011;36226;53.464;9.852;2023-06-26T01:53:24;7.80;;;5.97;;
50319;SDS011;36226;53.464;9.852;2023-06-26T01:55:55;8.82;;;6.20;;
50319;SDS011;36226;53.464;9.852;2023-06-26T01:58:26;7.20;;;5.60;;
50319;SDS011;36226;53.464;9.852;2023-06-26T02:00:52;6.97;;;5.25;;
50319;SDS011;36226;53.464;9.852;2023-06-26T02:03:18;6.60;;;5.80;;
50319;SDS011;36226;53.464;9.852;2023-06-26T02:05:45;6.38;;;5.68;;
50319;SDS011;36226;53.464;9.852;2023-06-26T02:08:14;7.75;;;6.40;;
50319;SDS011;36226;53.464;9.852;2023-06-26T02:10:40;9.25;;;5.78;;
50319;SDS011;36226;53.464;9.852;2023-06-26T02:13:05;6.28;;;5.68;;
50319;SDS011;36226;53.464;9.852;2023-06-26T02:15:31;8.48;;;5.97;;
50319;SDS011;36226;53.464;9.852;2023-06-26T02:17:56;7.28;;;6.13;;
50319;SDS011;36226;53.464;9.852;2023-06-26T02:20:21;7.57;;;6.30;;
50319;SDS011;36226;53.464;9.852;2023-06-26T02:22:47;7.13;;;6.07;;
50319;SDS011;36226;53.464;9.852;2023-06-26T02:25:12;7.13;;;6.18;;
50319;SDS011;36226;53.464;9.852;2023-06-26T02:27:38;7.35;;;5.65;;
50319;SDS011;36226;53.464;9.852;2023-06-26T02:30:03;6.82;;;6.00;;
50319;SDS011;36226;53.464;9.852;2023-06-26T02:32:29;6.90;;;6.07;;
50319;SDS011;36226;53.464;9.852;2023-06-26T02:34:54;7.43;;;6.10;;
50319;SDS011;36226;53.464;9.852;2023-06-26T02:37:20;6.78;;;6.07;;
50319;SDS011;36226;53.464;9.852;2023-06-26T02:39:45;6.57;;;5.85;;
50319;SDS011;36226;53.464;9.852;2023-06-26T02:42:11;6.60;;;5.88;;
50319;SDS011;36226;53.464;9.852;2023-06-26T02:44:36;7.20;;;6.40;;
50319;SDS011;36226;53.464;9.852;2023-06-26T02:47:01;8.82;;;6.35;;
50319;SDS011;36226;53.464;9.852;2023-06-26T02:49:27;6.85;;;6.15;;
50319;SDS011;36226;53.464;9.852;2023-06-26T02:51:52;9.52;;;6.35;;
50319;SDS011;36226;53.464;9.852;2023-06-26T02:54:17;9.70;;;6.60;;
50319;SDS011;36226;53.464;9.852;2023-06-26T02:56:43;7.40;;;6.30;;
50319;SDS011;36226;53.464;9.852;2023-06-26T02:59:08;7.65;;;6.47;;
50319;SDS011;36226;53.464;9.852;2023-06-26T03:01:33;7.53;;;6.68;;
50319;SDS011;36226;53.464;9.852;2023-06-26T03:03:59;7.20;;;5.93;;
50319;SDS011;36226;53.464;9.852;2023-06-26T03:06:26;6.88;;;6.13;;
50319;SDS011;36226;53.464;9.852;2023-06-26T03:08:52;6.78;;;6.07;;
50319;SDS011;36226;53.464;9.852;2023-06-26T03:11:18;7.07;;;6.10;;
50319;SDS011;36226;53.464;9.852;2023-06-26T03:13:43;10.50;;;6.20;;
50319;SDS011;36226;53.464;9.852;2023-06-26T03:16:08;11.10;;;6.20;;
50319;SDS011;36226;53.464;9.852;2023-06-26T03:18:34;8.95;;;6.45;;
50319;SDS011;36226;53.464;9.852;2023-06-26T03:20:59;6.55;;;5.93;;
50319;SDS011;36226;53.464;9.852;2023-06-26T03:23:25;7.05;;;6.35;;
50319;SDS011;36226;53.464;9.852;2023-06-26T03:25:50;7.65;;;6.32;;
50319;SDS011;36226;53.464;9.852;2023-06-26T03:28:16;7.90;;;5.70;;
50319;SDS011;36226;53.464;9.852;2023-06-26T03:30:41;7.88;;;6.63;;
50319;SDS011;36226;53.464;9.852;2023-06-26T03:33:07;7.55;;;6.03;;
50319;SDS011;36226;53.464;9.852;2023-06-26T03:35:32;6.60;;;5.90;;
50319;SDS011;36226;53.464;9.852;2023-06-26T03:37:58;6.80;;;6.10;;
50319;SDS011;36226;53.464;9.852;2023-06-26T03:40:24;9.85;;;6.70;;
50319;SDS011;36226;53.464;9.852;2023-06-26T03:42:49;8.05;;;6.43;;
50319;SDS011;36226;53.464;9.852;2023-06-26T03:45:15;7.05;;;6.10;;
50319;SDS011;36226;53.464;9.852;2023-06-26T03:47:40;6.95;;;6.20;;
50319;SDS011;36226;53.464;9.852;2023-06-26T03:50:05;7.38;;;6.53;;
50319;SDS011;36226;53.464;9.852;2023-06-26T03:52:31;8.40;;;6.00;;
50319;SDS011;36226;53.464;9.852;2023-06-26T03:54:57;7.15;;;5.90;;
50319;SDS011;36226;53.464;9.852;2023-06-26T03:57:22;7.32;;;6.10;;
50319;SDS011;36226;53.464;9.852;2023-06-26T03:59:48;6.75;;;6.15;;
50319;SDS011;36226;53.464;9.852;2023-06-26T04:02:13;7.13;;;5.97;;
50319;SDS011;36226;53.464;9.852;2023-06-26T04:04:39;6.80;;;6.05;;
50319;SDS011;36226;53.464;9.852;2023-06-26T04:07:04;8.07;;;6.47;;
50319;SDS011;36226;53.464;9.852;2023-06-26T04:09:30;6.57;;;5.90;;
50319;SDS011;36226;53.464;9.852;2023-06-26T04:11:55;7.85;;;5.93;;
50319;SDS011;36226;53.464;9.852;2023-06-26T04:14:20;7.20;;;6.45;;
50319;SDS011;36226;53.464;9.852;2023-06-26T04:16:46;7.03;;;5.85;;
50319;SDS011;36226;53.464;9.852;2023-06-26T04:19:11;6.30;;;5.55;;
50319;SDS011;36226;53.464;9.852;2023-06-26T04:21:37;7.30;;;5.50;;
50319;SDS011;36226;53.464;9.852;2023-06-26T04:24:02;6.63;;;5.93;;
50319;SDS011;36226;53.464;9.852;2023-06-26T04:26:28;6.78;;;5.43;;
50319;SDS011;36226;53.464;9.852;2023-06-26T04:28:53;7.03;;;5.68;;
50319;SDS011;36226;53.464;9.852;2023-06-26T04:31:19;6.60;;;5.57;;
50319;SDS011;36226;53.464;9.852;2023-06-26T04:33:45;9.15;;;6.28;;
50319;SDS011;36226;53.464;9.852;2023-06-26T04:36:15;7.63;;;5.78;;
50319;SDS011;36226;53.464;9.852;2023-06-26T04:38:41;6.45;;;5.53;;
50319;SDS011;36226;53.464;9.852;2023-06-26T04:41:06;6.13;;;5.53;;
50319;SDS011;36226;53.464;9.852;2023-06-26T04:43:32;6.35;;;5.68;;
50319;SDS011;36226;53.464;9.852;2023-06-26T04:45:57;7.22;;;5.47;;
50319;SDS011;36226;53.464;9.852;2023-06-26T04:48:22;8.30;;;5.57;;
50319;SDS011;36226;53.464;9.852;2023-06-26T04:50:48;5.75;;;5.15;;
50319;SDS011;36226;53.464;9.852;2023-06-26T04:53:18;6.88;;;5.65;;
50319;SDS011;36226;53.464;9.852;2023-06-26T04:55:44;6.20;;;5.60;;
50319;SDS011;36226;53.464;9.852;2023-06-26T04:58:10;6.18;;;4.93;;
50319;SDS011;36226;53.464;9.852;2023-06-26T05:00:35;6.03;;;5.15;;
50319;SDS011;36226;53.464;9.852;2023-06-26T05:03:01;7.57;;;5.32;;
50319;SDS011;36226;53.464;9.852;2023-06-26T05:05:29;7.95;;;5.45;;
50319;SDS011;36226;53.464;9.852;2023-06-26T05:07:55;6.28;;;5.13;;
50319;SDS011;36226;53.464;9.852;2023-06-26T05:10:20;7.22;;;5.22;;
50319;SDS011;36226;53.464;9.852;2023-06-26T05:12:46;7.03;;;5.43;;
50319;SDS011;36226;53.464;9.852;2023-06-26T05:15:11;7.50;;;5.00;;
50319;SDS011;36226;53.464;9.852;2023-06-26T05:17:37;6.05;;;5.45;;
50319;SDS011;36226;53.464;9.852;2023-06-26T05:20:02;5.43;;;4.60;;
50319;SDS011;36226;53.464;9.852;2023-06-26T05:22:28;6.78;;;5.85;;
50319;SDS011;36226;53.464;9.852;2023-06-26T05:24:54;5.68;;;5.07;;
50319;SDS011;36226;53.464;9.852;2023-06-26T05:27:20;6.40;;;5.38;;
50319;SDS011;36226;53.464;9.852;2023-06-26T05:29:47;6.82;;;4.95;;
50319;SDS011;36226;53.464;9.852;2023-06-26T05:32:14;6.43;;;4.75;;
50319;SDS011;36226;53.464;9.852;2023-06-26T05:34:42;5.82;;;5.00;;
50319;SDS011;36226;53.464;9.852;2023-06-26T05:37:09;7.05;;;5.35;;
50319;SDS011;36226;53.464;9.852;2023-06-26T05:39:40;6.32;;;5.15;;
50319;SDS011;36226;53.464;9.852;2023-06-26T05:42:05;8.13;;;5.25;;
50319;SDS011;36226;53.464;9.852;2023-06-26T05:44:31;6.93;;;5.70;;
50319;SDS011;36226;53.464;9.852;2023-06-26T05:46:56;6.25;;;5.03;;
50319;SDS011;36226;53.464;9.852;2023-06-26T05:49:22;8.10;;;5.18;;
50319;SDS011;36226;53.464;9.852;2023-06-26T05:51:47;7.70;;;5.13;;
50319;SDS011;36226;53.464;9.852;2023-06-26T05:54:13;5.78;;;5.13;;
50319;SDS011;36226;53.464;9.852;2023-06-26T05:56:38;9.88;;;5.75;;
50319;SDS011;36226;53.464;9.852;2023-06-26T05:59:04;6.75;;;5.32;;
50319;SDS011;36226;53.464;9.852;2023-06-26T06:01:31;8.00;;;5.32;;
50319;SDS011;36226;53.464;9.852;2023-06-26T06:03:58;6.90;;;5.53;;
50319;SDS011;36226;53.464;9.852;2023-06-26T06:06:24;5.88;;;5.20;;
50319;SDS011;36226;53.464;9.852;2023-06-26T06:08:49;6.80;;;5.72;;
50319;SDS011;36226;53.464;9.852;2023-06-26T06:11:14;6.32;;;5.45;;
50319;SDS011;36226;53.464;9.852;2023-06-26T06:13:40;7.88;;;5.78;;
50319;SDS011;36226;53.464;9.852;2023-06-26T06:16:05;6.38;;;5.50;;
50319;SDS011;36226;53.464;9.852;2023-06-26T06:18:31;6.38;;;5.60;;
50319;SDS011;36226;53.464;9.852;2023-06-26T06:20:56;6.88;;;5.80;;
50319;SDS011;36226;53.464;9.852;2023-06-26T06:23:21;6.78;;;5.35;;
50319;SDS011;36226;53.464;9.852;2023-06-26T06:25:48;6.72;;;5.82;;
50319;SDS011;36226;53.464;9.852;2023-06-26T06:28:13;7.50;;;5.50;;
50319;SDS011;36226;53.464;9.852;2023-06-26T06:30:41;6.90;;;5.30;;
50319;SDS011;36226;53.464;9.852;2023-06-26T06:33:06;6.10;;;5.47;;
50319;SDS011;36226;53.464;9.852;2023-06-26T06:35:31;6.35;;;5.40;;
50319;SDS011;36226;53.464;9.852;2023-06-26T06:37:57;5.78;;;5.15;;
50319;SDS011;36226;53.464;9.852;2023-06-26T06:40:22;5.93;;;5.32;;
50319;SDS011;36226;53.464;9.852;2023-06-26T06:42:47;7.22;;;5.50;;
50319;SDS011;36226;53.464;9.852;2023-06-26T06:45:13;6.15;;;5.50;;
50319;SDS011;36226;53.464;9.852;2023-06-26T06:47:38;7.32;;;5.53;;
50319;SDS011;36226;53.464;9.852;2023-06-26T06:50:03;6.68;;;5.35;;
50319;SDS011;36226;53.464;9.852;2023-06-26T06:52:38;7.15;;;5.20;;
50319;SDS011;36226;53.464;9.852;2023-06-26T06:55:05;6.45;;;5.65;;
50319;SDS011;36226;53.464;9.852;2023-06-26T06:57:33;6.90;;;5.50;;
50319;SDS011;36226;53.464;9.852;2023-06-26T07:00:03;7.70;;;5.80;;
50319;SDS011;36226;53.464;9.852;2023-06-26T07:02:29;5.97;;;5.35;;
50319;SDS011;36226;53.464;9.852;2023-06-26T07:04:55;7.07;;;5.82;;
50319;SDS011;36226;53.464;9.852;2023-06-26T07:07:20;6.15;;;5.53;;
50319;SDS011;36226;53.464;9.852;2023-06-26T07:09:45;6.45;;;5.05;;
50319;SDS011;36226;53.464;9.852;2023-06-26T07:12:11;6.05;;;5.00;;
50319;SDS011;36226;53.464;9.852;2023-06-26T07:14:36;5.72;;;5.13;;
50319;SDS011;36226;53.464;9.852;2023-06-26T07:17:01;6.53;;;5.40;;
50319;SDS011;36226;53.464;9.852;2023-06-26T07:19:27;6.57;;;5.88;;
50319;SDS011;36226;53.464;9.852;2023-06-26T07:21:52;6.95;;;5.35;;
50319;SDS011;36226;53.464;9.852;2023-06-26T07:24:17;6.07;;;5.20;;
50319;SDS011;36226;53.464;9.852;2023-06-26T07:26:43;6.18;;;5.03;;
50319;SDS011;36226;53.464;9.852;2023-06-26T07:29:08;7.53;;;5.15;;
50319;SDS011;36226;53.464;9.852;2023-06-26T07:31:34;7.57;;;5.40;;
50319;SDS011;36226;53.464;9.852;2023-06-26T07:33:59;5.72;;;5.13;;
50319;SDS011;36226;53.464;9.852;2023-06-26T07:36:24;5.60;;;5.00;;
50319;SDS011;36226;53.464;9.852;2023-06-26T07:38:50;7.40;;;5.20;;
50319;SDS011;36226;53.464;9.852;2023-06-26T07:41:15;6.30;;;5.30;;
50319;SDS011;36226;53.464;9.852;2023-06-26T07:43:41;6.57;;;5.03;;
50319;SDS011;36226;53.464;9.852;2023-06-26T07:46:06;6.72;;;5.80;;
50319;SDS011;36226;53.464;9.852;2023-06-26T07:48:31;9.30;;;5.55;;
50319;SDS011;36226;53.464;9.852;2023-06-26T07:50:57;8.63;;;5.82;;
50319;SDS011;36226;53.464;9.852;2023-06-26T07:53:22;7.15;;;5.72;;
50319;SDS011;36226;53.464;9.852;2023-06-26T07:55:47;8.77;;;5.82;;
50319;SDS011;36226;53.464;9.852;2023-06-26T07:58:13;6.10;;;5.50;;
50319;SDS011;36226;53.464;9.852;2023-06-26T08:00:38;9.38;;;5.80;;
50319;SDS011;36226;53.464;9.852;2023-06-26T08:03:03;7.53;;;5.60;;
50319;SDS011;36226;53.464;9.852;2023-06-26T08:05:29;5.82;;;5.22;;
50319;SDS011;36226;53.464;9.852;2023-06-26T08:07:54;6.90;;;5.63;;
50319;SDS011;36226;53.464;9.852;2023-06-26T08:10:20;6.72;;;5.65;;
50319;SDS011;36226;53.464;9.852;2023-06-26T08:12:45;6.72;;;5.85;;
50319;SDS011;36226;53.464;9.852;2023-06-26T08:15:12;6.88;;;6.18;;
50319;SDS011;36226;53.464;9.852;2023-06-26T08:17:38;7.78;;;5.95;;
50319;SDS011;36226;53.464;9.852;2023-06-26T08:20:03;6.45;;;5.75;;
50319;SDS011;36226;53.464;9.852;2023-06-26T08:22:30;7.07;;;6.00;;
50319;SDS011;36226;53.464;9.852;2023-06-26T08:24:55;7.20;;;6.47;;
50319;SDS011;36226;53.464;9.852;2023-06-26T08:27:21;7.00;;;5.93;;
50319;SDS011;36226;53.464;9.852;2023-06-26T08:29:46;7.13;;;6.40;;
50319;SDS011;36226;53.464;9.852;2023-06-26T08:32:12;6.95;;;5.90;;
50319;SDS011;36226;53.464;9.852;2023-06-26T08:34:37;7.28;;;5.82;;
50319;SDS011;36226;53.464;9.852;2023-06-26T08:37:03;8.10;;;5.85;;
50319;SDS011;36226;53.464;9.852;2023-06-26T08:39:28;6.43;;;5.65;;
50319;SDS011;36226;53.464;9.852;2023-06-26T08:41:53;7.43;;;5.95;;
50319;SDS011;36226;53.464;9.852;2023-06-26T08:44:19;11.10;;;7.28;;
50319;SDS011;36226;53.464;9.852;2023-06-26T08:46:49;8.65;;;6.10;;
50319;SDS011;36226;53.464;9.852;2023-06-26T08:49:25;7.63;;;6.75;;
50319;SDS011;36226;53.464;9.852;2023-06-26T08:51:57;7.32;;;6.22;;
50319;SDS011;36226;53.464;9.852;2023-06-26T08:54:28;7.82;;;6.57;;
50319;SDS011;36226;53.464;9.852;2023-06-26T08:56:58;8.73;;;7.22;;
50319;SDS011;36226;53.464;9.852;2023-06-26T08:59:24;9.35;;;6.78;;
50319;SDS011;36226;53.464;9.852;2023-06-26T09:01:50;8.35;;;6.68;;
50319;SDS011;36226;53.464;9.852;2023-06-26T09:04:15;10.73;;;6.75;;
50319;SDS011;36226;53.464;9.852;2023-06-26T09:06:41;9.00;;;7.90;;
50319;SDS011;36226;53.464;9.852;2023-06-26T09:09:06;9.60;;;7.65;;
50319;SDS011;36226;53.464;9.852;2023-06-26T09:11:32;8.27;;;7.05;;
50319;SDS011;36226;53.464;9.852;2023-06-26T09:13:58;9.25;;;7.90;;
50319;SDS011;36226;53.464;9.852;2023-06-26T09:16:25;10.60;;;8.00;;
50319;SDS011;36226;53.464;9.852;2023-06-26T09:18:56;9.05;;;8.00;;
50319;SDS011;36226;53.464;9.852;2023-06-26T09:21:21;11.05;;;8.63;;
50319;SDS011;36226;53.464;9.852;2023-06-26T09:23:49;10.50;;;8.60;;
50319;SDS011;36226;53.464;9.852;2023-06-26T09:26:15;12.85;;;8.88;;
50319;SDS011;36226;53.464;9.852;2023-06-26T09:28:41;14.57;;;8.35;;
50319;SDS011;36226;53.464;9.852;2023-06-26T09:31:07;12.00;;;7.45;;
50319;SDS011;36226;53.464;9.852;2023-06-26T09:33:33;9.88;;;7.05;;
50319;SDS011;36226;53.464;9.852;2023-06-26T09:36:01;11.60;;;7.57;;
50319;SDS011;36226;53.464;9.852;2023-06-26T09:38:26;10.93;;;8.35;;
50319;SDS011;36226;53.464;9.852;2023-06-26T09:40:51;9.88;;;7.93;;
50319;SDS011;36226;53.464;9.852;2023-06-26T09:43:17;10.65;;;8.10;;
50319;SDS011;36226;53.464;9.852;2023-06-26T09:45:44;11.88;;;8.02;;
50319;SDS011;36226;53.464;9.852;2023-06-26T09:48:09;10.18;;;7.90;;
50319;SDS011;36226;53.464;9.852;2023-06-26T09:50:37;10.32;;;8.10;;
50319;SDS011;36226;53.464;9.852;2023-06-26T09:53:10;11.10;;;8.02;;
50319;SDS011;36226;53.464;9.852;2023-06-26T09:55:36;10.40;;;8.10;;
50319;SDS011;36226;53.464;9.852;2023-06-26T09:58:02;10.00;;;8.32;;
50319;SDS011;36226;53.464;9.852;2023-06-26T10:00:29;10.63;;;7.70;;
50319;SDS011;36226;53.464;9.852;2023-06-26T10:02:55;12.20;;;8.63;;
50319;SDS011;36226;53.464;9.852;2023-06-26T10:05:21;12.25;;;9.32;;
50319;SDS011;36226;53.464;9.852;2023-06-26T10:07:46;14.65;;;9.32;;
50319;SDS011;36226;53.464;9.852;2023-06-26T10:10:11;12.57;;;8.82;;
50319;SDS011;36226;53.464;9.852;2023-06-26T10:12:37;13.05;;;9.15;;
50319;SDS011;36226;53.464;9.852;2023-06-26T10:15:02;15.93;;;9.20;;
50319;SDS011;36226;53.464;9.852;2023-06-26T10:17:30;18.77;;;10.73;;
50319;SDS011;36226;53.464;9.852;2023-06-26T10:19:59;15.50;;;9.98;;
50319;SDS011;36226;53.464;9.852;2023-06-26T10:22:29;13.38;;;9.48;;
50319;SDS011;36226;53.464;9.852;2023-06-26T10:24:55;10.57;;;7.30;;
50319;SDS011;36226;53.464;9.852;2023-06-26T10:27:23;8.85;;;6.75;;
50319;SDS011;36226;53.464;9.852;2023-06-26T10:29:50;9.52;;;7.47;;
50319;SDS011;36226;53.464;9.852;2023-06-26T10:32:20;9.10;;;7.72;;
50319;SDS011;36226;53.464;9.852;2023-06-26T10:34:46;11.02;;;9.70;;
50319;SDS011;36226;53.464;9.852;2023-06-26T10:37:12;11.88;;;10.20;;
50319;SDS011;36226;53.464;9.852;2023-06-26T10:39:52;11.57;;;10.25;;
50319;SDS011;36226;53.464;9.852;2023-06-26T10:42:28;12.98;;;10.85;;
50319;SDS011;36226;53.464;9.852;2023-06-26T10:45:08;15.27;;;10.63;;
50319;SDS011;36226;53.464;9.852;2023-06-26T10:47:35;14.80;;;11.48;;
50319;SDS011;36226;53.464;9.852;2023-06-26T10:50:44;13.65;;;11.40;;
50319;SDS011;36226;53.464;9.852;2023-06-26T10:55:47;16.98;;;12.82;;
50319;SDS011;36226;53.464;9.852;2023-06-26T11:08:47;12.82;;;9.15;;
50319;SDS011;36226;53.464;9.852;2023-06-26T11:11:13;12.35;;;8.40;;
50319;SDS011;36226;53.464;9.852;2023-06-26T11:13:39;15.00;;;6.75;;
50319;SDS011;36226;53.464;9.852;2023-06-26T11:16:06;8.77;;;5.43;;
50319;SDS011;36226;53.464;9.852;2023-06-26T11:18:32;13.75;;;5.72;;
50319;SDS011;36226;53.464;9.852;2023-06-26T11:21:31;10.73;;;5.50;;
50319;SDS011;36226;53.464;9.852;2023-06-26T11:23:49;8.75;;;4.78;;
50319;SDS011;36226;53.464;9.852;2023-06-26T11:26:15;10.35;;;4.63;;
50319;SDS011;36226;53.464;9.852;2023-06-26T11:28:47;6.05;;;3.85;;
50319;SDS011;36226;53.464;9.852;2023-06-26T11:31:23;9.50;;;4.10;;
50319;SDS011;36226;53.464;9.852;2023-06-26T11:33:49;10.68;;;4.00;;
50319;SDS011;36226;53.464;9.852;2023-06-26T11:36:15;10.68;;;3.35;;
50319;SDS011;36226;53.464;9.852;2023-06-26T11:38:40;8.93;;;2.92;;
50319;SDS011;36226;53.464;9.852;2023-06-26T11:41:05;12.57;;;3.20;;
50319;SDS011;36226;53.464;9.852;2023-06-26T11:43:33;7.85;;;2.28;;
50319;SDS011;36226;53.464;9.852;2023-06-26T11:45:59;8.90;;;2.67;;
50319;SDS011;36226;53.464;9.852;2023-06-26T11:48:24;7.00;;;1.80;;
50319;SDS011;36226;53.464;9.852;2023-06-26T11:50:50;8.98;;;2.20;;
50319;SDS011;36226;53.464;9.852;2023-06-26T11:53:16;4.55;;;1.90;;
50319;SDS011;36226;53.464;9.852;2023-06-26T11:55:42;7.70;;;1.98;;
50319;SDS011;36226;53.464;9.852;2023-06-26T11:58:08;4.90;;;2.00;;
50319;SDS011;36226;53.464;9.852;2023-06-26T12:00:33;5.78;;;1.80;;
50319;SDS011;36226;53.464;9.852;2023-06-26T12:02:58;5.80;;;1.50;;
50319;SDS011;36226;53.464;9.852;2023-06-26T12:05:24;6.70;;;2.10;;
50319;SDS011;36226;53.464;9.852;2023-06-26T12:07:49;5.28;;;2.05;;
50319;SDS011;36226;53.464;9.852;2023-06-26T12:10:15;8.85;;;2.20;;
50319;SDS011;36226;53.464;9.852;2023-06-26T12:12:41;5.70;;;1.70;;
50319;SDS011;36226;53.464;9.852;2023-06-26T12:15:07;5.50;;;1.40;;
50319;SDS011;36226;53.464;9.852;2023-06-26T12:17:36;10.80;;;2.17;;
50319;SDS011;36226;53.464;9.852;2023-06-26T12:20:02;3.97;;;1.20;;
50319;SDS011;36226;53.464;9.852;2023-06-26T12:22:33;5.43;;;1.48;;
50319;SDS011;36226;53.464;9.852;2023-06-26T12:24:59;2.38;;;1.40;;
50319;SDS011;36226;53.464;9.852;2023-06-26T12:27:24;3.50;;;1.60;;
50319;SDS011;36226;53.464;9.852;2023-06-26T12:29:51;6.40;;;1.85;;
50319;SDS011;36226;53.464;9.852;2023-06-26T12:32:17;4.63;;;1.48;;
50319;SDS011;36226;53.464;9.852;2023-06-26T12:34:46;4.65;;;1.70;;
50319;SDS011;36226;53.464;9.852;2023-06-26T12:37:13;7.93;;;2.00;;
50319;SDS011;36226;53.464;9.852;2023-06-26T12:39:45;4.07;;;1.75;;
50319;SDS011;36226;53.464;9.852;2023-06-26T12:42:16;4.03;;;1.42;;
50319;SDS011;36226;53.464;9.852;2023-06-26T12:44:42;5.97;;;1.65;;
50319;SDS011;36226;53.464;9.852;2023-06-26T12:47:08;5.07;;;1.50;;
50319;SDS011;36226;53.464;9.852;2023-06-26T12:49:38;7.22;;;1.70;;
50319;SDS011;36226;53.464;9.852;2023-06-26T12:52:05;10.27;;;1.98;;
50319;SDS011;36226;53.464;9.852;2023-06-26T12:54:31;6.05;;;1.73;;
50319;SDS011;36226;53.464;9.852;2023-06-26T12:56:57;7.20;;;1.85;;
50319;SDS011;36226;53.464;9.852;2023-06-26T12:59:23;5.45;;;1.50;;
50319;SDS011;36226;53.464;9.852;2023-06-26T13:01:48;3.40;;;1.45;;
50319;SDS011;36226;53.464;9.852;2023-06-26T13:04:14;6.68;;;1.90;;
50319;SDS011;36226;53.464;9.852;2023-06-26T13:06:40;7.32;;;1.70;;
50319;SDS011;36226;53.464;9.852;2023-06-26T13:09:05;4.32;;;1.50;;
50319;SDS011;36226;53.464;9.852;2023-06-26T13:11:31;4.00;;;1.60;;
50319;SDS011;36226;53.464;9.852;2023-06-26T13:13:57;3.67;;;1.65;;
50319;SDS011;36226;53.464;9.852;2023-06-26T13:16:23;6.47;;;1.70;;
50319;SDS011;36226;53.464;9.852;2023-06-26T13:18:48;5.38;;;1.80;;
50319;SDS011;36226;53.464;9.852;2023-06-26T13:21:13;3.92;;;1.50;;
50319;SDS011;36226;53.464;9.852;2023-06-26T13:23:39;3.80;;;1.70;;
50319;SDS011;36226;53.464;9.852;2023-06-26T13:26:05;5.65;;;1.42;;
50319;SDS011;36226;53.464;9.852;2023-06-26T13:28:31;6.07;;;1.73;;
50319;SDS011;36226;53.464;9.852;2023-06-26T13:30:56;4.50;;;1.60;;
50319;SDS011;36226;53.464;9.852;2023-06-26T13:33:21;5.22;;;1.67;;
50319;SDS011;36226;53.464;9.852;2023-06-26T13:35:50;3.60;;;1.38;;
50319;SDS011;36226;53.464;9.852;2023-06-26T13:38:16;5.75;;;1.65;;
50319;SDS011;36226;53.464;9.852;2023-06-26T13:40:42;5.35;;;1.40;;
50319;SDS011;36226;53.464;9.852;2023-06-26T13:43:08;5.05;;;1.33;;
50319;SDS011;36226;53.464;9.852;2023-06-26T13:45:33;6.53;;;1.60;;
50319;SDS011;36226;53.464;9.852;2023-06-26T13:47:58;5.20;;;1.10;;
50319;SDS011;36226;53.464;9.852;2023-06-26T13:50:24;5.28;;;1.40;;
50319;SDS011;36226;53.464;9.852;2023-06-26T13:52:49;3.70;;;1.40;;
50319;SDS011;36226;53.464;9.852;2023-06-26T13:55:14;9.25;;;2.05;;
50319;SDS011;36226;53.464;9.852;2023-06-26T13:57:40;4.47;;;1.35;;
50319;SDS011;36226;53.464;9.852;2023-06-26T14:00:07;3.05;;;1.35;;
50319;SDS011;36226;53.464;9.852;2023-06-26T14:02:33;4.40;;;1.60;;
50319;SDS011;36226;53.464;9.852;2023-06-26T14:04:59;5.78;;;1.50;;
50319;SDS011;36226;53.464;9.852;2023-06-26T14:07:24;3.63;;;1.00;;
50319;SDS011;36226;53.464;9.852;2023-06-26T14:09:50;4.47;;;1.30;;
50319;SDS011;36226;53.464;9.852;2023-06-26T14:12:15;4.82;;;1.50;;
50319;SDS011;36226;53.464;9.852;2023-06-26T14:14:40;3.53;;;1.30;;
50319;SDS011;36226;53.464;9.852;2023-06-26T14:17:07;3.83;;;1.10;;
50319;SDS011;36226;53.464;9.852;2023-06-26T14:19:34;4.40;;;1.90;;
50319;SDS011;36226;53.464;9.852;2023-06-26T14:21:59;5.75;;;1.30;;
50319;SDS011;36226;53.464;9.852;2023-06-26T14:24:24;6.85;;;1.30;;
50319;SDS011;36226;53.464;9.852;2023-06-26T14:26:50;4.28;;;1.48;;
50319;SDS011;36226;53.464;9.852;2023-06-26T14:29:16;6.70;;;1.85;;
50319;SDS011;36226;53.464;9.852;2023-06-26T14:31:42;2.95;;;1.35;;
50319;SDS011;36226;53.464;9.852;2023-06-26T14:34:08;7.68;;;1.35;;
50319;SDS011;36226;53.464;9.852;2023-06-26T14:36:33;2.67;;;1.20;;
50319;SDS011;36226;53.464;9.852;2023-06-26T14:38:59;5.20;;;1.42;;
50319;SDS011;36226;53.464;9.852;2023-06-26T14:41:24;5.03;;;1.42;;
50319;SDS011;36226;53.464;9.852;2023-06-26T14:43:50;4.00;;;1.30;;
50319;SDS011;36226;53.464;9.852;2023-06-26T14:46:15;3.97;;;1.35;;
50319;SDS011;36226;53.464;9.852;2023-06-26T14:48:41;3.00;;;1.20;;
50319;SDS011;36226;53.464;9.852;2023-06-26T14:51:06;3.65;;;1.30;;
50319;SDS011;36226;53.464;9.852;2023-06-26T14:53:31;6.50;;;1.20;;
50319;SDS011;36226;53.464;9.852;2023-06-26T14:55:57;1.67;;;0.80;;